Time;durP1;ratioP1;P1;durP2;ratioP2;P2;SDS_P1;SDS_P2;PMS_P1;PMS_P2;Temp;Humidity;BMP_temperature;BMP_pressure;BME280_temperature;BME280_humidity;BME280_pressure;Samples;Min_cycle;Max_cycle;Signal;HPM_P1;HPM_P2
2022/10/15 00:09:56;;;;;;;46.20;33.20;;;;;;;7.08;88.59;99360.64;436708;1282;143207;-63
2022/10/15 00:20:02;;;;;;;53.90;37.70;;;;;;;6.98;88.76;99354.86;432106;1274;142447;-63
2022/10/15 00:30:10;;;;;;;51.60;36.60;;;;;;;7.09;89.41;99351.89;435903;1281;142609;-62
2022/10/15 00:40:16;;;;;;;49.50;38.00;;;;;;;7.27;89.70;99339.27;435445;1281;146670;-63
2022/10/15 00:50:24;;;;;;;56.00;40.20;;;;;;;7.48;90.16;99322.96;429309;1274;142693;-63
2022/10/15 01:00:30;;;;;;;59.00;39.20;;;;;;;7.71;90.52;99314.36;428138;1281;143407;-63
2022/10/15 01:10:45;;;;;;;56.40;39.40;;;;;;;7.85;90.44;99315.65;422976;1282;142400;-63
2022/10/15 01:21:03;;;;;;;48.80;37.50;;;;;;;7.96;90.64;99296.55;435939;1280;143636;-63
2022/10/15 01:31:18;;;;;;;50.40;38.30;;;;;;;8.12;90.77;99276.30;423885;1275;146760;-63
2022/10/15 01:41:31;;;;;;;52.90;37.30;;;;;;;8.21;90.96;99267.94;424303;1274;145303;-63
2022/10/15 01:51:40;;;;;;;54.20;38.10;;;;;;;8.25;90.79;99267.70;432148;1280;143500;-63
2022/10/15 02:01:46;;;;;;;51.70;36.60;;;;;;;8.29;90.80;99260.98;426234;1281;142078;-65
2022/10/15 02:12:03;;;;;;;51.00;36.50;;;;;;;8.31;90.85;99258.98;418902;1275;142747;-63
2022/10/15 02:22:14;;;;;;;54.60;40.50;;;;;;;8.26;90.70;99253.51;425096;1275;142832;-62
2022/10/15 02:32:21;;;;;;;53.80;37.40;;;;;;;8.22;90.89;99249.41;433616;1281;163838;-63
2022/10/15 02:42:28;;;;;;;48.70;36.70;;;;;;;8.21;90.73;99247.54;428487;1275;143468;-62
2022/10/15 02:52:34;;;;;;;45.40;35.30;;;;;;;8.20;90.74;99243.04;425822;1281;143482;-63
2022/10/15 03:02:40;;;;;;;53.80;39.30;;;;;;;8.21;91.05;99225.90;422538;1284;194778;-64
2022/10/15 03:12:46;;;;;;;50.30;34.40;;;;;;;8.23;91.32;99218.44;429493;1281;141548;-64
2022/10/15 03:22:52;;;;;;;43.70;31.70;;;;;;;8.16;90.90;99223.02;420547;1275;142444;-63
2022/10/15 03:32:57;;;;;;;52.40;38.10;;;;;;;7.84;90.86;99217.08;423359;1282;142228;-63
2022/10/15 03:43:03;;;;;;;51.30;35.70;;;;;;;7.59;91.39;99203.55;423116;1273;145139;-63
2022/10/15 03:53:09;;;;;;;52.10;37.50;;;;;;;7.45;92.14;99193.35;420891;1274;143531;-63
2022/10/15 04:03:15;;;;;;;48.80;36.00;;;;;;;7.22;92.03;99207.71;421267;1275;214845;-64
2022/10/15 04:13:21;;;;;;;55.20;40.00;;;;;;;7.07;92.60;99199.00;419964;1276;142711;-63
2022/10/15 04:23:27;;;;;;;58.50;35.80;;;;;;;7.04;93.26;99186.81;420347;1274;146627;-63
2022/10/15 04:33:33;;;;;;;50.20;37.70;;;;;;;7.00;93.55;99172.39;420413;1278;144629;-64
2022/10/15 04:43:39;;;;;;;54.60;39.40;;;;;;;6.92;93.81;99179.95;421073;1284;144293;-63
2022/10/15 04:53:45;;;;;;;55.30;38.30;;;;;;;6.84;94.26;99169.40;420143;1275;142292;-63
2022/10/15 05:03:51;;;;;;;47.00;35.30;;;;;;;6.79;94.34;99166.57;420134;1274;142737;-63
2022/10/15 05:13:58;;;;;;;53.10;37.60;;;;;;;6.75;94.52;99169.94;420894;1281;142333;-64
2022/10/15 05:24:04;;;;;;;52.50;38.70;;;;;;;6.76;94.90;99177.55;419606;1273;186473;-64
2022/10/15 05:34:11;;;;;;;57.60;39.50;;;;;;;6.85;95.09;99183.50;420695;1279;143690;-64
2022/10/15 05:44:17;;;;;;;53.60;36.60;;;;;;;7.00;95.37;99179.85;420845;1274;143521;-63
2022/10/15 05:54:22;;;;;;;50.90;36.70;;;;;;;7.27;95.42;99182.20;420577;1282;143994;-63
2022/10/15 06:04:28;;;;;;;47.50;34.30;;;;;;;7.92;95.48;99171.30;420416;1275;146604;-63
2022/10/15 06:14:40;;;;;;;42.70;32.10;;;;;;;9.53;94.60;99171.91;419575;1274;163101;-64
2022/10/15 06:24:45;;;;;;;35.80;25.90;;;;;;;11.96;90.58;99170.54;420077;1274;147220;-63
2022/10/15 06:34:51;;;;;;;26.60;23.50;;;;;;;14.26;85.75;99166.10;420567;1274;145654;-63
2022/10/15 06:44:57;;;;;;;27.10;24.30;;;;;;;16.33;79.75;99168.02;419829;1281;143703;-64
2022/10/15 06:55:03;;;;;;;26.80;23.90;;;;;;;16.11;77.15;99169.77;421067;1275;143665;-63
2022/10/15 07:05:10;;;;;;;25.40;22.20;;;;;;;16.15;75.28;99172.77;420219;1275;146732;-63
2022/10/15 07:15:17;;;;;;;24.20;21.50;;;;;;;17.01;73.97;99173.86;419384;1281;200911;-63
2022/10/15 07:25:23;;;;;;;23.70;20.90;;;;;;;17.99;70.89;99178.23;420279;1281;153505;-63
2022/10/15 07:35:29;;;;;;;24.30;21.80;;;;;;;20.46;67.89;99170.80;420400;1282;145320;-63
2022/10/15 07:45:35;;;;;;;22.80;20.20;;;;;;;19.07;65.08;99171.59;422800;1281;141852;-64
2022/10/15 07:55:41;;;;;;;22.10;19.50;;;;;;;17.14;66.95;99163.67;436841;1281;145313;-64
2022/10/15 08:05:46;;;;;;;20.80;18.70;;;;;;;17.34;67.96;99161.09;428108;1274;146940;-64
2022/10/15 08:15:52;;;;;;;20.70;18.50;;;;;;;19.76;64.63;99157.15;435196;1280;142877;-64
2022/10/15 08:26:04;;;;;;;21.30;17.70;;;;;;;19.50;62.15;99159.27;422127;1274;142389;-72
2022/10/15 08:36:10;;;;;;;18.40;16.60;;;;;;;19.61;62.17;99154.14;430476;1275;143236;-72
2022/10/15 08:46:22;;;;;;;20.50;18.20;;;;;;;20.43;59.63;99146.20;425975;1275;145706;-72
2022/10/15 08:56:35;;;;;;;19.30;17.30;;;;;;;18.33;60.67;99155.85;421094;1280;141842;-72
2022/10/15 09:06:42;;;;;;;17.80;16.00;;;;;;;19.53;61.38;99153.08;430097;1275;142840;-71
2022/10/15 09:16:50;;;;;;;17.90;16.10;;;;;;;20.17;59.31;99152.77;423869;1281;142040;-73
2022/10/15 09:27:05;;;;;;;18.10;16.10;;;;;;;20.06;59.14;99157.83;422839;1281;146265;-72
2022/10/15 09:37:19;;;;;;;16.80;15.00;;;;;;;19.93;59.03;99151.28;420905;1281;141353;-71
2022/10/15 09:47:28;;;;;;;17.40;15.50;;;;;;;19.95;58.64;99150.84;420992;1281;144842;-73
2022/10/15 09:57:36;;;;;;;19.80;15.30;;;;;;;19.70;58.36;99148.40;421456;1274;143222;-72
2022/10/15 10:07:40;;;;;;;;;;;;;;;19.24;58.49;99150.13;422133;1281;142067;-74
2022/10/15 10:17:53;;;;;;;16.00;14.40;;;;;;;18.44;58.72;99154.88;421254;1279;128746;-74
2022/10/15 10:28:04;;;;;;;16.50;14.40;;;;;;;17.91;59.85;99160.59;420249;1281;146658;-73
2022/10/15 10:38:21;;;;;;;16.30;14.30;;;;;;;17.94;60.30;99165.44;421397;1282;142472;-73
2022/10/15 10:48:29;;;;;;;20.60;14.90;;;;;;;18.36;60.31;99171.28;420261;1281;213342;-73
2022/10/15 10:58:35;;;;;;;17.60;15.80;;;;;;;18.20;59.72;99170.84;420692;1278;142035;-73
2022/10/15 11:08:51;;;;;;;14.60;13.00;;;;;;;17.64;60.17;99179.60;420495;1281;142460;-73
2022/10/15 11:19:09;;;;;;;16.30;14.30;;;;;;;17.02;61.30;99177.08;421236;1285;142407;-72
2022/10/15 11:29:37;;;;;;;14.60;13.20;;;;;;;16.89;61.82;99176.30;420085;1289;147249;-71
2022/10/15 11:40:00;;;;;;;18.10;14.70;;;;;;;17.10;62.25;99179.42;420382;1278;145884;-73
2022/10/15 11:50:17;;;;;;;14.70;13.20;;;;;;;17.13;62.95;99173.32;421095;1281;142118;-72
2022/10/15 12:00:34;;;;;;;13.50;11.60;;;;;;;17.48;62.60;99175.61;420546;1279;143978;-73
2022/10/15 12:10:56;;;;;;;13.30;11.70;;;;;;;17.09;61.95;99181.08;421251;1281;146232;-73
2022/10/15 12:21:01;;;;;;;12.20;11.20;;;;;;;16.57;62.78;99185.75;421459;1281;142593;-72
2022/10/15 12:31:07;;;;;;;14.50;11.50;;;;;;;16.15;63.69;99185.08;422021;1281;142871;-72
2022/10/15 12:41:15;;;;;;;14.30;11.20;;;;;;;15.97;64.42;99181.42;421153;1281;142551;-73
2022/10/15 12:51:38;;;;;;;14.80;13.30;;;;;;;15.86;64.81;99178.77;420080;1282;210062;-72
2022/10/15 13:01:53;;;;;;;15.40;13.80;;;;;;;15.97;65.27;99179.50;421734;1283;141868;-72
2022/10/15 13:12:00;;;;;;;15.20;12.70;;;;;;;16.21;65.32;99177.41;419436;1281;143226;-72
2022/10/15 13:22:20;;;;;;;15.30;12.80;;;;;;;16.33;64.94;99173.19;421234;1283;147395;-72
2022/10/15 13:32:28;;;;;;;17.40;12.90;;;;;;;16.26;65.44;99164.80;419727;1275;143683;-73
2022/10/15 13:42:34;;;;;;;16.30;13.40;;;;;;;16.09;66.16;99160.71;420865;1282;145595;-74
2022/10/15 13:52:43;;;;;;;17.90;14.50;;;;;;;15.94;66.70;99157.91;420511;1281;142537;-73
2022/10/15 14:03:08;;;;;;;17.40;15.20;;;;;;;15.89;66.83;99159.05;421567;1275;143683;-72
2022/10/15 14:13:14;;;;;;;23.10;19.40;;;;;;;15.94;66.57;99165.10;421186;1281;142574;-73
2022/10/15 14:23:23;;;;;;;17.40;15.20;;;;;;;16.01;66.47;99165.39;420463;1282;154131;-74
2022/10/15 14:33:43;;;;;;;14.60;12.20;;;;;;;16.05;66.11;99168.31;422231;1281;142958;-73
2022/10/15 14:44:02;;;;;;;18.10;13.60;;;;;;;15.99;65.47;99159.67;422336;1282;146679;-72
2022/10/15 14:54:11;;;;;;;19.60;15.40;;;;;;;15.93;65.13;99157.80;422234;1285;142575;-71
2022/10/15 15:14:48;;;;;;;15.60;12.30;;;;;;;15.59;64.92;99159.65;409918;1324;600388;-70
2022/10/15 15:24:55;;;;;;;22.10;16.10;;;;;;;15.44;65.31;99167.42;417934;1284;304233;-72
2022/10/15 15:35:00;;;;;;;21.30;18.10;;;;;;;15.26;65.50;99170.20;417779;1285;144413;-72
2022/10/15 15:45:14;;;;;;;16.60;13.30;;;;;;;15.03;65.72;99170.10;417546;1284;141368;-72
2022/10/15 15:55:20;;;;;;;17.20;14.30;;;;;;;14.85;65.74;99178.42;418156;1285;142164;-75
2022/10/15 16:05:26;;;;;;;22.50;15.20;;;;;;;14.76;65.58;99188.00;417000;1284;142530;-72
2022/10/15 16:15:32;;;;;;;15.00;12.80;;;;;;;14.69;65.48;99204.42;417610;1284;141482;-71
2022/10/15 16:25:38;;;;;;;18.30;15.30;;;;;;;14.58;65.58;99218.07;418004;1284;143331;-73
2022/10/15 16:35:43;;;;;;;15.70;13.50;;;;;;;14.43;65.67;99223.54;417221;1292;142483;-74
2022/10/15 16:45:57;;;;;;;30.20;20.40;;;;;;;14.26;65.83;99231.38;418230;1284;142456;-71
2022/10/15 16:56:05;;;;;;;32.50;22.90;;;;;;;14.05;66.20;99237.35;420476;1277;199992;-70
2022/10/15 17:06:14;;;;;;;24.90;18.50;;;;;;;13.98;66.58;99244.58;418698;1285;144505;-70
2022/10/15 17:16:22;;;;;;;19.10;15.20;;;;;;;13.87;66.67;99248.13;422131;1285;144547;-70
2022/10/15 17:26:32;;;;;;;19.40;14.80;;;;;;;13.72;66.88;99251.52;418557;1277;142742;-71
2022/10/15 17:36:43;;;;;;;16.10;13.60;;;;;;;13.51;67.06;99262.16;425835;1275;142492;-74
2022/10/15 17:46:51;;;;;;;17.60;13.70;;;;;;;13.33;67.62;99277.33;420791;1282;143631;-71
2022/10/15 17:56:56;;;;;;;;;;;;;;;13.35;68.06;99287.86;420862;1280;141843;-72
2022/10/15 18:07:01;;;;;;;18.50;14.40;;;;;;;13.47;68.20;99290.45;420615;1282;127854;-71
2022/10/15 18:17:07;;;;;;;18.30;13.60;;;;;;;13.60;68.34;99303.52;420469;1281;143485;-71
2022/10/15 18:27:13;;;;;;;14.40;12.60;;;;;;;13.75;68.89;99318.44;419708;1282;142036;-72
2022/10/15 18:37:19;;;;;;;16.80;13.30;;;;;;;13.87;69.64;99331.75;419893;1282;143146;-72
2022/10/15 18:47:26;;;;;;;14.40;12.40;;;;;;;13.87;70.09;99345.25;419623;1275;144247;-72
2022/10/15 18:57:33;;;;;;;14.70;11.30;;;;;;;13.82;70.48;99346.54;419819;1281;142407;-72
2022/10/15 19:07:39;;;;;;;12.90;11.10;;;;;;;13.80;70.75;99353.63;420496;1274;144282;-72
2022/10/15 19:17:45;;;;;;;17.70;11.50;;;;;;;13.76;71.01;99369.23;419450;1275;142321;-73
2022/10/15 19:27:51;;;;;;;16.40;11.90;;;;;;;13.70;71.41;99377.45;419877;1274;141228;-71
2022/10/15 19:37:56;;;;;;;11.60;10.20;;;;;;;13.57;72.23;99378.64;420326;1274;142512;-73
2022/10/15 19:48:02;;;;;;;13.30;9.90;;;;;;;13.40;72.89;99381.34;419765;1275;144482;-72
2022/10/15 19:58:09;;;;;;;10.90;8.80;;;;;;;13.26;73.66;99387.34;420650;1274;142633;-72
2022/10/15 20:08:17;;;;;;;11.40;10.20;;;;;;;13.11;74.35;99392.15;419827;1274;141888;-66
2022/10/15 20:18:23;;;;;;;11.90;10.50;;;;;;;12.96;75.16;99398.80;420652;1274;210108;-72
2022/10/15 20:28:29;;;;;;;9.80;8.90;;;;;;;12.85;75.75;99403.47;420960;1275;141255;-72
2022/10/15 20:38:36;;;;;;;15.60;10.70;;;;;;;12.76;76.25;99411.38;421479;1281;143370;-72
2022/10/15 20:48:43;;;;;;;13.20;9.90;;;;;;;12.72;76.64;99413.05;420968;1274;182122;-72
2022/10/15 20:58:49;;;;;;;11.10;9.10;;;;;;;12.71;76.64;99414.95;422477;1281;142220;-71
2022/10/15 21:08:56;;;;;;;10.80;9.70;;;;;;;12.72;76.58;99421.88;419980;1275;142409;-72
2022/10/15 21:19:02;;;;;;;13.20;10.40;;;;;;;12.74;76.61;99420.45;420554;1282;143000;-71
2022/10/15 21:29:12;;;;;;;10.50;9.50;;;;;;;12.76;76.62;99425.08;420421;1275;142169;-72
2022/10/15 21:39:17;;;;;;;11.70;10.20;;;;;;;12.76;76.62;99428.27;419978;1282;211661;-71
2022/10/15 21:49:24;;;;;;;10.20;9.20;;;;;;;12.76;76.74;99424.56;420714;1281;143082;-72
2022/10/15 21:59:29;;;;;;;14.60;9.50;;;;;;;12.75;76.69;99419.34;419312;1274;144282;-72
2022/10/15 22:09:35;;;;;;;10.40;9.40;;;;;;;12.75;76.84;99425.67;420446;1281;142872;-71
2022/10/15 22:19:41;;;;;;;10.40;9.30;;;;;;;12.74;76.82;99423.64;420218;1281;141770;-71
2022/10/15 22:29:48;;;;;;;9.60;8.30;;;;;;;12.74;76.85;99429.27;419187;1281;142188;-73
2022/10/15 22:39:54;;;;;;;11.60;9.20;;;;;;;12.71;76.88;99431.73;420505;1281;142079;-72
2022/10/15 22:50:00;;;;;;;10.80;9.30;;;;;;;12.71;76.92;99437.08;420036;1274;142622;-63
2022/10/15 23:00:13;;;;;;;11.80;8.80;;;;;;;12.71;76.92;99445.33;420200;1281;142009;-62
2022/10/15 23:10:19;;;;;;;10.70;7.40;;;;;;;12.69;76.93;99465.48;420083;1282;142797;-62
2022/10/15 23:20:25;;;;;;;11.50;8.50;;;;;;;12.71;76.98;99485.02;419376;1281;142543;-62
2022/10/15 23:30:31;;;;;;;12.00;8.20;;;;;;;12.69;77.04;99487.92;420226;1281;142804;-63
2022/10/15 23:40:36;;;;;;;9.40;8.50;;;;;;;12.68;77.13;99483.98;419769;1280;146324;-62
2022/10/15 23:50:42;;;;;;;9.80;7.90;;;;;;;12.65;77.16;99484.02;419614;1281;145077;-63
